sensor_id;sensor_type;location;lat;lon;timestamp;P1;durP1;ratioP1;P2;durP2;ratioP2
74808;SDS011;63338;39.544;2.596;2022-11-20T00:03:33;9.25;;;2.22;;
74808;SDS011;63338;39.544;2.596;2022-11-20T00:06:00;7.10;;;2.33;;
74808;SDS011;63338;39.544;2.596;2022-11-20T00:08:30;7.60;;;4.13;;
74808;SDS011;63338;39.544;2.596;2022-11-20T00:10:56;5.85;;;2.83;;
74808;SDS011;63338;39.544;2.596;2022-11-20T00:13:22;4.80;;;2.50;;
74808;SDS011;63338;39.544;2.596;2022-11-20T00:15:48;9.35;;;2.42;;
74808;SDS011;63338;39.544;2.596;2022-11-20T00:18:21;6.97;;;2.25;;
74808;SDS011;63338;39.544;2.596;2022-11-20T00:20:47;5.75;;;2.10;;
74808;SDS011;63338;39.544;2.596;2022-11-20T00:23:13;7.35;;;2.13;;
74808;SDS011;63338;39.544;2.596;2022-11-20T00:25:39;5.20;;;2.63;;
74808;SDS011;63338;39.544;2.596;2022-11-20T00:28:05;5.88;;;2.05;;
74808;SDS011;63338;39.544;2.596;2022-11-20T00:30:31;6.55;;;2.20;;
74808;SDS011;63338;39.544;2.596;2022-11-20T00:32:57;5.57;;;2.33;;
74808;SDS011;63338;39.544;2.596;2022-11-20T00:35:23;4.63;;;1.90;;
74808;SDS011;63338;39.544;2.596;2022-11-20T00:37:50;7.50;;;2.20;;
74808;SDS011;63338;39.544;2.596;2022-11-20T00:40:16;4.63;;;2.00;;
74808;SDS011;63338;39.544;2.596;2022-11-20T00:42:42;4.47;;;2.00;;
74808;SDS011;63338;39.544;2.596;2022-11-20T00:45:08;6.72;;;1.83;;
74808;SDS011;63338;39.544;2.596;2022-11-20T00:47:34;9.40;;;1.90;;
74808;SDS011;63338;39.544;2.596;2022-11-20T00:50:01;4.68;;;1.50;;
74808;SDS011;63338;39.544;2.596;2022-11-20T00:52:27;7.50;;;2.17;;
74808;SDS011;63338;39.544;2.596;2022-11-20T00:54:53;4.95;;;1.90;;
74808;SDS011;63338;39.544;2.596;2022-11-20T00:57:22;8.50;;;1.75;;
74808;SDS011;63338;39.544;2.596;2022-11-20T00:59:48;5.13;;;1.88;;
74808;SDS011;63338;39.544;2.596;2022-11-20T01:02:14;6.78;;;2.00;;
74808;SDS011;63338;39.544;2.596;2022-11-20T01:04:41;7.05;;;1.63;;
74808;SDS011;63338;39.544;2.596;2022-11-20T01:07:08;4.97;;;1.70;;
74808;SDS011;63338;39.544;2.596;2022-11-20T01:09:34;6.22;;;1.70;;
74808;SDS011;63338;39.544;2.596;2022-11-20T01:12:00;4.80;;;1.60;;
74808;SDS011;63338;39.544;2.596;2022-11-20T01:14:27;5.28;;;1.80;;
74808;SDS011;63338;39.544;2.596;2022-11-20T01:16:53;4.30;;;1.50;;
74808;SDS011;63338;39.544;2.596;2022-11-20T01:19:22;6.70;;;1.67;;
74808;SDS011;63338;39.544;2.596;2022-11-20T01:22:58;6.55;;;2.10;;
74808;SDS011;63338;39.544;2.596;2022-11-20T01:25:24;6.97;;;1.83;;
74808;SDS011;63338;39.544;2.596;2022-11-20T01:27:50;5.15;;;1.52;;
74808;SDS011;63338;39.544;2.596;2022-11-20T01:30:16;7.65;;;1.50;;
74808;SDS011;63338;39.544;2.596;2022-11-20T01:32:42;6.22;;;1.40;;
74808;SDS011;63338;39.544;2.596;2022-11-20T01:35:08;4.55;;;1.35;;
74808;SDS011;63338;39.544;2.596;2022-11-20T01:37:35;5.05;;;1.35;;
74808;SDS011;63338;39.544;2.596;2022-11-20T01:40:01;5.65;;;1.92;;
74808;SDS011;63338;39.544;2.596;2022-11-20T01:42:28;4.45;;;1.10;;
74808;SDS011;63338;39.544;2.596;2022-11-20T01:48:15;4.05;;;1.00;;
74808;SDS011;63338;39.544;2.596;2022-11-20T01:50:52;4.72;;;1.23;;
74808;SDS011;63338;39.544;2.596;2022-11-20T01:53:23;6.57;;;1.20;;
74808;SDS011;63338;39.544;2.596;2022-11-20T01:55:54;5.45;;;1.30;;
74808;SDS011;63338;39.544;2.596;2022-11-20T01:58:25;2.90;;;0.80;;
74808;SDS011;63338;39.544;2.596;2022-11-20T02:00:55;7.70;;;1.20;;
74808;SDS011;63338;39.544;2.596;2022-11-20T02:03:21;6.75;;;1.20;;
74808;SDS011;63338;39.544;2.596;2022-11-20T02:08:42;8.88;;;1.98;;
74808;SDS011;63338;39.544;2.596;2022-11-20T02:11:10;3.83;;;0.90;;
74808;SDS011;63338;39.544;2.596;2022-11-20T02:13:38;6.32;;;0.98;;
74808;SDS011;63338;39.544;2.596;2022-11-20T02:16:11;5.18;;;1.15;;
74808;SDS011;63338;39.544;2.596;2022-11-20T02:18:50;4.95;;;0.98;;
74808;SDS011;63338;39.544;2.596;2022-11-20T02:26:28;5.07;;;1.00;;
74808;SDS011;63338;39.544;2.596;2022-11-20T02:28:56;5.95;;;0.90;;
74808;SDS011;63338;39.544;2.596;2022-11-20T02:31:25;7.60;;;1.20;;
74808;SDS011;63338;39.544;2.596;2022-11-20T02:33:57;5.50;;;1.00;;
74808;SDS011;63338;39.544;2.596;2022-11-20T02:36:26;4.85;;;1.08;;
74808;SDS011;63338;39.544;2.596;2022-11-20T02:38:53;5.93;;;1.10;;
74808;SDS011;63338;39.544;2.596;2022-11-20T02:41:19;6.55;;;1.00;;
74808;SDS011;63338;39.544;2.596;2022-11-20T02:43:48;4.97;;;1.27;;
74808;SDS011;63338;39.544;2.596;2022-11-20T02:46:14;7.63;;;0.93;;
74808;SDS011;63338;39.544;2.596;2022-11-20T02:48:40;5.45;;;1.17;;
74808;SDS011;63338;39.544;2.596;2022-11-20T02:51:06;7.55;;;1.20;;
74808;SDS011;63338;39.544;2.596;2022-11-20T02:53:34;9.07;;;1.27;;
74808;SDS011;63338;39.544;2.596;2022-11-20T02:56:00;8.15;;;1.40;;
74808;SDS011;63338;39.544;2.596;2022-11-20T02:58:26;12.57;;;2.97;;
74808;SDS011;63338;39.544;2.596;2022-11-20T03:00:52;5.15;;;1.23;;
74808;SDS011;63338;39.544;2.596;2022-11-20T03:03:18;6.13;;;1.60;;
74808;SDS011;63338;39.544;2.596;2022-11-20T03:05:44;4.68;;;1.30;;
74808;SDS011;63338;39.544;2.596;2022-11-20T03:08:10;7.20;;;1.13;;
74808;SDS011;63338;39.544;2.596;2022-11-20T03:10:36;5.15;;;1.30;;
74808;SDS011;63338;39.544;2.596;2022-11-20T03:13:02;5.43;;;1.30;;
74808;SDS011;63338;39.544;2.596;2022-11-20T03:15:28;3.17;;;1.00;;
74808;SDS011;63338;39.544;2.596;2022-11-20T03:17:57;3.38;;;1.10;;
74808;SDS011;63338;39.544;2.596;2022-11-20T03:20:23;6.55;;;1.13;;
74808;SDS011;63338;39.544;2.596;2022-11-20T03:22:49;7.90;;;1.30;;
74808;SDS011;63338;39.544;2.596;2022-11-20T03:25:16;5.45;;;1.20;;
74808;SDS011;63338;39.544;2.596;2022-11-20T03:27:42;6.25;;;1.02;;
74808;SDS011;63338;39.544;2.596;2022-11-20T03:30:09;6.88;;;1.73;;
74808;SDS011;63338;39.544;2.596;2022-11-20T03:32:36;8.23;;;1.08;;
74808;SDS011;63338;39.544;2.596;2022-11-20T03:35:02;4.78;;;1.02;;
74808;SDS011;63338;39.544;2.596;2022-11-20T03:37:28;5.38;;;0.98;;
74808;SDS011;63338;39.544;2.596;2022-11-20T03:39:57;8.40;;;0.88;;
74808;SDS011;63338;39.544;2.596;2022-11-20T03:42:23;5.90;;;1.20;;
74808;SDS011;63338;39.544;2.596;2022-11-20T03:45:08;5.18;;;0.82;;
74808;SDS011;63338;39.544;2.596;2022-11-20T03:47:34;5.90;;;0.98;;
74808;SDS011;63338;39.544;2.596;2022-11-20T03:50:00;3.47;;;1.05;;
74808;SDS011;63338;39.544;2.596;2022-11-20T03:52:26;2.72;;;0.50;;
74808;SDS011;63338;39.544;2.596;2022-11-20T03:54:52;3.67;;;0.80;;
74808;SDS011;63338;39.544;2.596;2022-11-20T03:57:18;4.78;;;0.75;;
74808;SDS011;63338;39.544;2.596;2022-11-20T03:59:44;4.63;;;1.00;;
74808;SDS011;63338;39.544;2.596;2022-11-20T04:02:10;1.75;;;0.77;;
74808;SDS011;63338;39.544;2.596;2022-11-20T04:04:36;11.02;;;1.42;;
74808;SDS011;63338;39.544;2.596;2022-11-20T04:07:02;6.07;;;1.15;;
74808;SDS011;63338;39.544;2.596;2022-11-20T04:09:28;4.43;;;0.90;;
74808;SDS011;63338;39.544;2.596;2022-11-20T04:11:58;4.32;;;0.80;;
74808;SDS011;63338;39.544;2.596;2022-11-20T04:14:25;5.13;;;0.88;;
74808;SDS011;63338;39.544;2.596;2022-11-20T04:16:51;4.10;;;0.98;;
74808;SDS011;63338;39.544;2.596;2022-11-20T04:19:18;2.67;;;0.82;;
74808;SDS011;63338;39.544;2.596;2022-11-20T04:21:44;9.23;;;0.98;;
74808;SDS011;63338;39.544;2.596;2022-11-20T04:24:10;2.78;;;0.73;;
74808;SDS011;63338;39.544;2.596;2022-11-20T04:26:36;4.38;;;1.25;;
74808;SDS011;63338;39.544;2.596;2022-11-20T04:29:03;4.03;;;0.88;;
74808;SDS011;63338;39.544;2.596;2022-11-20T04:31:32;5.47;;;1.23;;
74808;SDS011;63338;39.544;2.596;2022-11-20T04:34:00;4.72;;;0.85;;
74808;SDS011;63338;39.544;2.596;2022-11-20T04:36:28;5.13;;;1.27;;
74808;SDS011;63338;39.544;2.596;2022-11-20T04:38:58;5.30;;;0.90;;
74808;SDS011;63338;39.544;2.596;2022-11-20T04:41:26;4.32;;;0.90;;
74808;SDS011;63338;39.544;2.596;2022-11-20T04:43:55;2.03;;;0.90;;
74808;SDS011;63338;39.544;2.596;2022-11-20T04:46:29;2.63;;;0.73;;
74808;SDS011;63338;39.544;2.596;2022-11-20T04:48:57;6.20;;;0.98;;
74808;SDS011;63338;39.544;2.596;2022-11-20T04:51:24;2.40;;;0.65;;
74808;SDS011;63338;39.544;2.596;2022-11-20T04:53:50;2.90;;;0.70;;
74808;SDS011;63338;39.544;2.596;2022-11-20T04:56:16;7.38;;;0.60;;
74808;SDS011;63338;39.544;2.596;2022-11-20T04:58:42;3.35;;;0.60;;
74808;SDS011;63338;39.544;2.596;2022-11-20T05:03:39;5.72;;;1.08;;
74808;SDS011;63338;39.544;2.596;2022-11-20T05:06:06;4.22;;;0.70;;
74808;SDS011;63338;39.544;2.596;2022-11-20T05:08:34;4.10;;;0.52;;
74808;SDS011;63338;39.544;2.596;2022-11-20T05:11:04;5.75;;;1.60;;
74808;SDS011;63338;39.544;2.596;2022-11-20T05:13:37;4.18;;;0.50;;
74808;SDS011;63338;39.544;2.596;2022-11-20T05:16:05;2.78;;;0.50;;
74808;SDS011;63338;39.544;2.596;2022-11-20T05:18:38;4.40;;;0.60;;
74808;SDS011;63338;39.544;2.596;2022-11-20T05:21:05;3.70;;;0.40;;
74808;SDS011;63338;39.544;2.596;2022-11-20T05:23:32;8.20;;;0.70;;
74808;SDS011;63338;39.544;2.596;2022-11-20T05:25:59;7.30;;;0.70;;
74808;SDS011;63338;39.544;2.596;2022-11-20T05:28:26;6.55;;;0.70;;
74808;SDS011;63338;39.544;2.596;2022-11-20T05:31:11;3.08;;;0.50;;
74808;SDS011;63338;39.544;2.596;2022-11-20T05:33:41;4.70;;;0.70;;
74808;SDS011;63338;39.544;2.596;2022-11-20T05:36:09;4.82;;;0.50;;
74808;SDS011;63338;39.544;2.596;2022-11-20T05:38:36;2.90;;;0.45;;
74808;SDS011;63338;39.544;2.596;2022-11-20T05:41:13;1.23;;;0.30;;
74808;SDS011;63338;39.544;2.596;2022-11-20T05:43:41;2.55;;;0.43;;
74808;SDS011;63338;39.544;2.596;2022-11-20T05:46:10;4.97;;;0.73;;
74808;SDS011;63338;39.544;2.596;2022-11-20T05:48:40;7.10;;;0.73;;
74808;SDS011;63338;39.544;2.596;2022-11-20T05:51:08;3.88;;;0.63;;
74808;SDS011;63338;39.544;2.596;2022-11-20T05:53:36;5.38;;;0.77;;
74808;SDS011;63338;39.544;2.596;2022-11-20T05:56:03;3.10;;;0.40;;
74808;SDS011;63338;39.544;2.596;2022-11-20T05:58:31;1.65;;;0.40;;
74808;SDS011;63338;39.544;2.596;2022-11-20T06:01:05;4.25;;;0.90;;
74808;SDS011;63338;39.544;2.596;2022-11-20T06:03:45;3.53;;;0.60;;
74808;SDS011;63338;39.544;2.596;2022-11-20T06:06:13;3.35;;;0.57;;
74808;SDS011;63338;39.544;2.596;2022-11-20T06:08:40;4.90;;;0.95;;
74808;SDS011;63338;39.544;2.596;2022-11-20T06:11:07;9.35;;;1.90;;
74808;SDS011;63338;39.544;2.596;2022-11-20T06:13:34;3.28;;;0.68;;
74808;SDS011;63338;39.544;2.596;2022-11-20T06:16:01;3.92;;;0.50;;
74808;SDS011;63338;39.544;2.596;2022-11-20T06:18:28;4.70;;;0.68;;
74808;SDS011;63338;39.544;2.596;2022-11-20T06:21:07;5.05;;;0.50;;
74808;SDS011;63338;39.544;2.596;2022-11-20T06:23:38;4.47;;;0.40;;
74808;SDS011;63338;39.544;2.596;2022-11-20T06:26:06;6.03;;;0.60;;
74808;SDS011;63338;39.544;2.596;2022-11-20T06:28:34;4.65;;;0.52;;
74808;SDS011;63338;39.544;2.596;2022-11-20T06:31:00;5.15;;;0.63;;
74808;SDS011;63338;39.544;2.596;2022-11-20T06:33:27;4.97;;;0.55;;
74808;SDS011;63338;39.544;2.596;2022-11-20T06:35:55;3.30;;;0.63;;
74808;SDS011;63338;39.544;2.596;2022-11-20T06:38:23;2.83;;;0.40;;
74808;SDS011;63338;39.544;2.596;2022-11-20T06:40:53;1.38;;;0.38;;
74808;SDS011;63338;39.544;2.596;2022-11-20T06:43:20;5.43;;;0.55;;
74808;SDS011;63338;39.544;2.596;2022-11-20T06:45:51;5.57;;;0.65;;
74808;SDS011;63338;39.544;2.596;2022-11-20T06:48:20;2.97;;;0.50;;
74808;SDS011;63338;39.544;2.596;2022-11-20T06:50:47;8.30;;;0.80;;
74808;SDS011;63338;39.544;2.596;2022-11-20T06:53:13;3.22;;;0.40;;
74808;SDS011;63338;39.544;2.596;2022-11-20T06:55:42;2.78;;;0.60;;
74808;SDS011;63338;39.544;2.596;2022-11-20T06:58:09;3.28;;;0.57;;
74808;SDS011;63338;39.544;2.596;2022-11-20T07:00:39;4.00;;;0.50;;
74808;SDS011;63338;39.544;2.596;2022-11-20T07:03:06;5.07;;;0.77;;
74808;SDS011;63338;39.544;2.596;2022-11-20T07:05:34;3.05;;;0.47;;
74808;SDS011;63338;39.544;2.596;2022-11-20T07:08:01;6.53;;;1.00;;
74808;SDS011;63338;39.544;2.596;2022-11-20T07:10:28;4.00;;;0.68;;
74808;SDS011;63338;39.544;2.596;2022-11-20T07:12:55;5.00;;;0.63;;
74808;SDS011;63338;39.544;2.596;2022-11-20T07:15:22;2.85;;;0.52;;
74808;SDS011;63338;39.544;2.596;2022-11-20T07:17:49;3.10;;;0.40;;
74808;SDS011;63338;39.544;2.596;2022-11-20T07:20:15;2.55;;;0.60;;
74808;SDS011;63338;39.544;2.596;2022-11-20T07:22:41;5.57;;;0.63;;
74808;SDS011;63338;39.544;2.596;2022-11-20T07:25:10;4.03;;;0.43;;
74808;SDS011;63338;39.544;2.596;2022-11-20T07:27:36;7.53;;;0.77;;
74808;SDS011;63338;39.544;2.596;2022-11-20T07:30:03;3.25;;;0.45;;
74808;SDS011;63338;39.544;2.596;2022-11-20T07:32:32;5.47;;;0.60;;
74808;SDS011;63338;39.544;2.596;2022-11-20T07:34:58;5.60;;;0.60;;
74808;SDS011;63338;39.544;2.596;2022-11-20T07:37:25;3.05;;;0.38;;
74808;SDS011;63338;39.544;2.596;2022-11-20T07:39:51;4.70;;;0.60;;
74808;SDS011;63338;39.544;2.596;2022-11-20T07:42:17;4.20;;;0.50;;
74808;SDS011;63338;39.544;2.596;2022-11-20T07:44:43;4.25;;;0.80;;
74808;SDS011;63338;39.544;2.596;2022-11-20T07:47:09;3.03;;;0.47;;
74808;SDS011;63338;39.544;2.596;2022-11-20T07:49:35;5.20;;;0.68;;
74808;SDS011;63338;39.544;2.596;2022-11-20T07:52:01;5.00;;;0.45;;
74808;SDS011;63338;39.544;2.596;2022-11-20T07:54:27;5.97;;;0.50;;
74808;SDS011;63338;39.544;2.596;2022-11-20T07:56:53;3.22;;;0.60;;
74808;SDS011;63338;39.544;2.596;2022-11-20T07:59:19;4.13;;;0.60;;
74808;SDS011;63338;39.544;2.596;2022-11-20T08:01:45;6.18;;;0.55;;
74808;SDS011;63338;39.544;2.596;2022-11-20T08:04:11;4.35;;;0.43;;
74808;SDS011;63338;39.544;2.596;2022-11-20T08:06:37;2.72;;;0.60;;
74808;SDS011;63338;39.544;2.596;2022-11-20T08:09:04;5.93;;;0.85;;
74808;SDS011;63338;39.544;2.596;2022-11-20T08:11:30;5.68;;;0.57;;
74808;SDS011;63338;39.544;2.596;2022-11-20T08:14:14;3.72;;;0.60;;
74808;SDS011;63338;39.544;2.596;2022-11-20T08:16:42;4.55;;;0.50;;
74808;SDS011;63338;39.544;2.596;2022-11-20T08:19:10;3.13;;;0.43;;
74808;SDS011;63338;39.544;2.596;2022-11-20T08:21:36;7.05;;;0.40;;
74808;SDS011;63338;39.544;2.596;2022-11-20T08:24:03;6.28;;;0.68;;
74808;SDS011;63338;39.544;2.596;2022-11-20T08:26:30;4.55;;;0.60;;
74808;SDS011;63338;39.544;2.596;2022-11-20T08:28:56;7.57;;;2.05;;
74808;SDS011;63338;39.544;2.596;2022-11-20T08:31:23;6.68;;;0.50;;
74808;SDS011;63338;39.544;2.596;2022-11-20T08:33:50;4.47;;;0.40;;
74808;SDS011;63338;39.544;2.596;2022-11-20T08:36:17;6.75;;;0.57;;
74808;SDS011;63338;39.544;2.596;2022-11-20T08:38:49;6.80;;;0.50;;
74808;SDS011;63338;39.544;2.596;2022-11-20T08:41:19;4.65;;;0.40;;
74808;SDS011;63338;39.544;2.596;2022-11-20T08:43:49;3.63;;;0.50;;
74808;SDS011;63338;39.544;2.596;2022-11-20T08:46:16;3.70;;;0.50;;
74808;SDS011;63338;39.544;2.596;2022-11-20T08:48:42;4.88;;;0.32;;
74808;SDS011;63338;39.544;2.596;2022-11-20T08:51:09;4.38;;;0.50;;
74808;SDS011;63338;39.544;2.596;2022-11-20T08:53:36;3.45;;;0.43;;
74808;SDS011;63338;39.544;2.596;2022-11-20T08:56:02;4.35;;;0.60;;
74808;SDS011;63338;39.544;2.596;2022-11-20T08:58:32;6.05;;;0.57;;
74808;SDS011;63338;39.544;2.596;2022-11-20T09:00:58;5.05;;;0.80;;
74808;SDS011;63338;39.544;2.596;2022-11-20T09:03:25;4.10;;;0.40;;
74808;SDS011;63338;39.544;2.596;2022-11-20T09:05:59;6.18;;;0.65;;
74808;SDS011;63338;39.544;2.596;2022-11-20T09:08:27;3.17;;;0.50;;
74808;SDS011;63338;39.544;2.596;2022-11-20T09:10:54;3.25;;;0.50;;
74808;SDS011;63338;39.544;2.596;2022-11-20T09:13:21;3.85;;;0.52;;
74808;SDS011;63338;39.544;2.596;2022-11-20T09:15:55;5.07;;;0.35;;
74808;SDS011;63338;39.544;2.596;2022-11-20T09:18:23;3.08;;;0.47;;
74808;SDS011;63338;39.544;2.596;2022-11-20T09:20:50;4.65;;;0.32;;
74808;SDS011;63338;39.544;2.596;2022-11-20T09:23:16;3.58;;;0.32;;
74808;SDS011;63338;39.544;2.596;2022-11-20T09:25:43;3.80;;;0.50;;
74808;SDS011;63338;39.544;2.596;2022-11-20T09:28:09;3.90;;;0.50;;
74808;SDS011;63338;39.544;2.596;2022-11-20T09:30:35;6.50;;;0.50;;
74808;SDS011;63338;39.544;2.596;2022-11-20T09:33:01;4.15;;;0.60;;
74808;SDS011;63338;39.544;2.596;2022-11-20T09:35:30;3.78;;;0.60;;
74808;SDS011;63338;39.544;2.596;2022-11-20T09:37:56;4.75;;;0.47;;
74808;SDS011;63338;39.544;2.596;2022-11-20T09:40:23;8.13;;;0.63;;
74808;SDS011;63338;39.544;2.596;2022-11-20T09:56:39;2.95;;;0.35;;
74808;SDS011;63338;39.544;2.596;2022-11-20T09:59:11;3.83;;;0.40;;
74808;SDS011;63338;39.544;2.596;2022-11-20T10:01:53;5.38;;;0.55;;
74808;SDS011;63338;39.544;2.596;2022-11-20T10:04:20;3.60;;;0.45;;
74808;SDS011;63338;39.544;2.596;2022-11-20T10:06:51;2.63;;;0.30;;
74808;SDS011;63338;39.544;2.596;2022-11-20T10:09:39;3.83;;;0.50;;
74808;SDS011;63338;39.544;2.596;2022-11-20T10:18:05;6.07;;;0.85;;
74808;SDS011;63338;39.544;2.596;2022-11-20T10:29:01;1.88;;;0.40;;
74808;SDS011;63338;39.544;2.596;2022-11-20T10:31:38;2.92;;;0.43;;
74808;SDS011;63338;39.544;2.596;2022-11-20T10:36:40;3.25;;;0.50;;
74808;SDS011;63338;39.544;2.596;2022-11-20T10:41:56;4.25;;;0.57;;
74808;SDS011;63338;39.544;2.596;2022-11-20T10:44:26;2.97;;;0.40;;
74808;SDS011;63338;39.544;2.596;2022-11-20T10:49:41;3.15;;;0.70;;
74808;SDS011;63338;39.544;2.596;2022-11-20T10:52:48;4.50;;;0.88;;
74808;SDS011;63338;39.544;2.596;2022-11-20T10:58:48;4.20;;;0.60;;
74808;SDS011;63338;39.544;2.596;2022-11-20T11:03:38;7.40;;;0.55;;
74808;SDS011;63338;39.544;2.596;2022-11-20T11:09:14;3.85;;;0.70;;
74808;SDS011;63338;39.544;2.596;2022-11-20T11:11:42;3.53;;;0.50;;
74808;SDS011;63338;39.544;2.596;2022-11-20T11:14:11;2.63;;;0.28;;
74808;SDS011;63338;39.544;2.596;2022-11-20T11:16:55;2.40;;;0.30;;
74808;SDS011;63338;39.544;2.596;2022-11-20T11:19:23;2.60;;;0.60;;
74808;SDS011;63338;39.544;2.596;2022-11-20T11:21:50;13.25;;;6.57;;
74808;SDS011;63338;39.544;2.596;2022-11-20T11:24:25;7.13;;;1.48;;
74808;SDS011;63338;39.544;2.596;2022-11-20T11:29:32;3.28;;;0.65;;
74808;SDS011;63338;39.544;2.596;2022-11-20T11:32:11;3.55;;;0.55;;
74808;SDS011;63338;39.544;2.596;2022-11-20T11:34:40;2.20;;;0.25;;
74808;SDS011;63338;39.544;2.596;2022-11-20T11:37:40;3.38;;;0.28;;
74808;SDS011;63338;39.544;2.596;2022-11-20T11:40:23;2.92;;;0.43;;
74808;SDS011;63338;39.544;2.596;2022-11-20T11:43:16;2.72;;;0.60;;
74808;SDS011;63338;39.544;2.596;2022-11-20T11:46:38;2.80;;;0.20;;
74808;SDS011;63338;39.544;2.596;2022-11-20T11:50:13;3.45;;;0.10;;
74808;SDS011;63338;39.544;2.596;2022-11-20T11:56:45;2.95;;;0.30;;
74808;SDS011;63338;39.544;2.596;2022-11-20T12:00:05;1.48;;;0.17;;
74808;SDS011;63338;39.544;2.596;2022-11-20T12:05:59;2.38;;;0.20;;
74808;SDS011;63338;39.544;2.596;2022-11-20T12:12:31;1.98;;;0.50;;
74808;SDS011;63338;39.544;2.596;2022-11-20T12:15:30;2.35;;;0.50;;
74808;SDS011;63338;39.544;2.596;2022-11-20T12:17:59;1.42;;;0.25;;
74808;SDS011;63338;39.544;2.596;2022-11-20T12:20:33;2.35;;;0.40;;
74808;SDS011;63338;39.544;2.596;2022-11-20T12:23:18;2.20;;;0.30;;
74808;SDS011;63338;39.544;2.596;2022-11-20T12:26:08;3.25;;;0.50;;
74808;SDS011;63338;39.544;2.596;2022-11-20T12:32:22;4.80;;;0.30;;
74808;SDS011;63338;39.544;2.596;2022-11-20T12:50:28;2.90;;;0.40;;
74808;SDS011;63338;39.544;2.596;2022-11-20T12:52:57;0.90;;;0.20;;
74808;SDS011;63338;39.544;2.596;2022-11-20T12:59:07;4.63;;;1.02;;
74808;SDS011;63338;39.544;2.596;2022-11-20T13:04:16;2.83;;;0.80;;
74808;SDS011;63338;39.544;2.596;2022-11-20T13:07:05;2.75;;;0.47;;
74808;SDS011;63338;39.544;2.596;2022-11-20T13:09:45;4.78;;;0.90;;
74808;SDS011;63338;39.544;2.596;2022-11-20T13:12:15;2.15;;;0.35;;
74808;SDS011;63338;39.544;2.596;2022-11-20T13:15:14;2.13;;;0.40;;
74808;SDS011;63338;39.544;2.596;2022-11-20T13:18:00;3.03;;;0.30;;
74808;SDS011;63338;39.544;2.596;2022-11-20T13:20:32;2.75;;;0.50;;
74808;SDS011;63338;39.544;2.596;2022-11-20T13:23:06;1.63;;;0.30;;
74808;SDS011;63338;39.544;2.596;2022-11-20T13:25:33;2.17;;;0.52;;
74808;SDS011;63338;39.544;2.596;2022-11-20T13:30:36;2.45;;;0.70;;
74808;SDS011;63338;39.544;2.596;2022-11-20T13:33:49;2.17;;;0.60;;
74808;SDS011;63338;39.544;2.596;2022-11-20T13:36:20;0.88;;;0.22;;
74808;SDS011;63338;39.544;2.596;2022-11-20T13:38:49;3.67;;;0.40;;
74808;SDS011;63338;39.544;2.596;2022-11-20T13:41:27;1.42;;;0.30;;
74808;SDS011;63338;39.544;2.596;2022-11-20T13:47:03;0.85;;;0.20;;
74808;SDS011;63338;39.544;2.596;2022-11-20T13:49:44;1.75;;;0.40;;
74808;SDS011;63338;39.544;2.596;2022-11-20T14:00:55;1.05;;;0.20;;
74808;SDS011;63338;39.544;2.596;2022-11-20T14:04:54;1.55;;;0.20;;
74808;SDS011;63338;39.544;2.596;2022-11-20T14:07:24;2.50;;;0.90;;
74808;SDS011;63338;39.544;2.596;2022-11-20T14:09:57;4.25;;;2.53;;
74808;SDS011;63338;39.544;2.596;2022-11-20T14:12:28;5.43;;;2.08;;
74808;SDS011;63338;39.544;2.596;2022-11-20T14:14:57;2.13;;;0.90;;
74808;SDS011;63338;39.544;2.596;2022-11-20T14:17:31;3.95;;;0.60;;
74808;SDS011;63338;39.544;2.596;2022-11-20T14:22:56;3.72;;;0.30;;
74808;SDS011;63338;39.544;2.596;2022-11-20T14:25:40;3.75;;;1.70;;
74808;SDS011;63338;39.544;2.596;2022-11-20T14:28:26;2.63;;;1.05;;
74808;SDS011;63338;39.544;2.596;2022-11-20T14:31:21;1.08;;;0.00;;
74808;SDS011;63338;39.544;2.596;2022-11-20T14:33:54;1.95;;;0.10;;
74808;SDS011;63338;39.544;2.596;2022-11-20T14:36:22;2.17;;;0.10;;
74808;SDS011;63338;39.544;2.596;2022-11-20T14:38:51;0.68;;;0.10;;
74808;SDS011;63338;39.544;2.596;2022-11-20T14:41:22;0.98;;;0.40;;
74808;SDS011;63338;39.544;2.596;2022-11-20T14:43:58;0.57;;;0.10;;
74808;SDS011;63338;39.544;2.596;2022-11-20T14:46:28;2.95;;;0.20;;
74808;SDS011;63338;39.544;2.596;2022-11-20T14:48:57;2.15;;;0.20;;
74808;SDS011;63338;39.544;2.596;2022-11-20T14:51:34;1.17;;;0.10;;
74808;SDS011;63338;39.544;2.596;2022-11-20T14:54:24;0.77;;;0.13;;
74808;SDS011;63338;39.544;2.596;2022-11-20T14:56:59;0.52;;;0.13;;
74808;SDS011;63338;39.544;2.596;2022-11-20T14:59:32;0.70;;;0.03;;
74808;SDS011;63338;39.544;2.596;2022-11-20T15:02:01;0.90;;;0.10;;
74808;SDS011;63338;39.544;2.596;2022-11-20T15:04:30;3.55;;;0.20;;
74808;SDS011;63338;39.544;2.596;2022-11-20T15:06:58;0.43;;;0.08;;
74808;SDS011;63338;39.544;2.596;2022-11-20T15:09:27;0.63;;;0.10;;
74808;SDS011;63338;39.544;2.596;2022-11-20T15:11:57;0.30;;;0.13;;
74808;SDS011;63338;39.544;2.596;2022-11-20T15:14:27;0.30;;;0.00;;
74808;SDS011;63338;39.544;2.596;2022-11-20T15:17:00;1.70;;;0.10;;
74808;SDS011;63338;39.544;2.596;2022-11-20T15:19:26;0.80;;;0.10;;
74808;SDS011;63338;39.544;2.596;2022-11-20T15:21:53;0.88;;;0.10;;
74808;SDS011;63338;39.544;2.596;2022-11-20T15:24:19;1.75;;;0.15;;
74808;SDS011;63338;39.544;2.596;2022-11-20T15:26:45;1.45;;;0.35;;
74808;SDS011;63338;39.544;2.596;2022-11-20T15:29:12;1.35;;;0.20;;
74808;SDS011;63338;39.544;2.596;2022-11-20T15:31:40;1.85;;;0.10;;
74808;SDS011;63338;39.544;2.596;2022-11-20T15:34:12;1.13;;;0.10;;
74808;SDS011;63338;39.544;2.596;2022-11-20T15:36:39;1.35;;;0.10;;
74808;SDS011;63338;39.544;2.596;2022-11-20T15:39:06;3.22;;;0.10;;
74808;SDS011;63338;39.544;2.596;2022-11-20T15:41:33;1.08;;;0.10;;
74808;SDS011;63338;39.544;2.596;2022-11-20T15:44:00;0.50;;;0.38;;
74808;SDS011;63338;39.544;2.596;2022-11-20T15:46:27;2.42;;;0.20;;
74808;SDS011;63338;39.544;2.596;2022-11-20T15:48:56;1.00;;;0.15;;
74808;SDS011;63338;39.544;2.596;2022-11-20T15:51:29;2.33;;;0.20;;
74808;SDS011;63338;39.544;2.596;2022-11-20T15:53:57;0.73;;;0.08;;
74808;SDS011;63338;39.544;2.596;2022-11-20T15:56:27;0.70;;;0.10;;
74808;SDS011;63338;39.544;2.596;2022-11-20T15:58:53;0.30;;;0.03;;
74808;SDS011;63338;39.544;2.596;2022-11-20T16:01:21;1.50;;;0.10;;
74808;SDS011;63338;39.544;2.596;2022-11-20T16:03:47;1.42;;;0.40;;
74808;SDS011;63338;39.544;2.596;2022-11-20T16:06:16;5.43;;;3.08;;
74808;SDS011;63338;39.544;2.596;2022-11-20T16:08:45;1.88;;;0.77;;
74808;SDS011;63338;39.544;2.596;2022-11-20T16:11:15;3.85;;;1.55;;
74808;SDS011;63338;39.544;2.596;2022-11-20T16:13:43;1.63;;;0.57;;
74808;SDS011;63338;39.544;2.596;2022-11-20T16:16:29;0.50;;;0.10;;
74808;SDS011;63338;39.544;2.596;2022-11-20T16:19:00;1.55;;;0.10;;
74808;SDS011;63338;39.544;2.596;2022-11-20T16:21:26;0.40;;;0.10;;
74808;SDS011;63338;39.544;2.596;2022-11-20T16:24:06;2.92;;;0.20;;
74808;SDS011;63338;39.544;2.596;2022-11-20T16:26:34;1.55;;;0.20;;
74808;SDS011;63338;39.544;2.596;2022-11-20T16:29:00;1.55;;;0.30;;
74808;SDS011;63338;39.544;2.596;2022-11-20T16:31:28;0.52;;;0.13;;
74808;SDS011;63338;39.544;2.596;2022-11-20T16:33:58;0.60;;;0.30;;
74808;SDS011;63338;39.544;2.596;2022-11-20T16:36:26;2.05;;;0.35;;
74808;SDS011;63338;39.544;2.596;2022-11-20T16:39:00;0.68;;;0.10;;
74808;SDS011;63338;39.544;2.596;2022-11-20T16:41:29;1.70;;;0.30;;
74808;SDS011;63338;39.544;2.596;2022-11-20T16:43:57;3.00;;;0.32;;
74808;SDS011;63338;39.544;2.596;2022-11-20T16:46:28;0.98;;;0.22;;
74808;SDS011;63338;39.544;2.596;2022-11-20T16:49:08;0.57;;;0.20;;
74808;SDS011;63338;39.544;2.596;2022-11-20T16:51:37;2.25;;;0.30;;
74808;SDS011;63338;39.544;2.596;2022-11-20T16:54:04;1.70;;;0.30;;
74808;SDS011;63338;39.544;2.596;2022-11-20T16:56:31;1.50;;;0.20;;
74808;SDS011;63338;39.544;2.596;2022-11-20T16:58:58;2.78;;;0.52;;
74808;SDS011;63338;39.544;2.596;2022-11-20T17:01:28;0.82;;;0.25;;
74808;SDS011;63338;39.544;2.596;2022-11-20T17:06:35;1.08;;;0.20;;
74808;SDS011;63338;39.544;2.596;2022-11-20T17:09:04;1.75;;;0.20;;